• Join FlightAware (Why Join?)
  • Login
  • US Flag 
11:48AM EDT


 

Airport Tracker/Info


-or-


 

Live Flight TrackerFlight Track Log ✈ SWA720 ✈ 18-May-2013 ✈ KHOU - KPHX

Flight Track Log - Related Links

Times and Time Zones

All times are in EDT time to prevent confusion due to time zone crossing. See the SWA720 flight status page for this flight to view local times or setup timezone preferences in your user account.

Time Position Orientation Groundspeed Altitude Reporting Facility
EDT Latitude Longitude Course Direction KTS MPH feet Rate Location/Type
07:06PM 29.6286 -95.2611 170° South 157 181 900  Level Houston Center
07:06PM 29.6136 -95.2581 170° South 160 184 1,600 1,560 Climbing Houston Center
07:07PM 29.5744 -95.2997 223° Southwest 223 257 3,100 2,220 Climbing Houston Center
07:08PM 29.5700 -95.3783 266° West 266 306 6,400 2,880 Climbing Houston Center
07:09PM 29.6172 -95.4794 298° West 297 342 9,100 2,280 Climbing Houston Center
07:10PM 29.6583 -95.5733 297° West 321 369 11,100 1,920 Climbing Houston Center
07:11PM 29.7044 -95.6764 297° West 356 410 13,100 2,040 Climbing Houston Center
07:12PM 29.7519 -95.7847 297° West 375 432 15,400 2,160 Climbing Houston Center
07:13PM 29.7992 -95.8956 296° West 384 442 17,600 2,040 Climbing Houston Center
07:14PM 29.8475 -96.0061 297° West 387 445 19,700 1,800 Climbing Houston Center
07:15PM 29.8986 -96.1206 297° West 395 455 21,400 1,560 Climbing Houston Center
07:16PM 29.9400 -96.2406 292° West 405 466 23,000 1,320 Climbing Houston Center
07:17PM 29.9464 -96.4014 273° West 423 487 24,200 1,200 Climbing Houston Center
07:19PM 29.9542 -96.5350 274° West 422 486 25,500 1,320 Climbing Houston Center
07:20PM 29.9781 -96.6694 282° West 431 496 27,000 1,380 Climbing Houston Center
07:21PM 30.0064 -96.8019 284° West 429 494 28,400 1,320 Climbing Houston Center
07:22PM 30.0339 -96.9339 284° West 427 491 29,800 1,260 Climbing Houston Center
07:23PM 30.0603 -97.0642 283° West 422 486 31,000 1,140 Climbing Houston Center
07:24PM 30.0867 -97.1919 283° West 415 478 32,200 1,380 Climbing Houston Center
07:25PM 30.1169 -97.3436 283° West 408 470 33,900 840 Climbing Houston Center
07:26PM 30.1436 -97.4697 284° West 402 463 34,000  Climbing Houston Center
07:27PM 30.1692 -97.5981 283° West 405 466 34,000  Level Houston Center
07:28PM 30.1950 -97.7250 283° West 401 461 34,000  Level Houston Center
07:29PM 30.2200 -97.8517 283° West 400 460 34,000  Level Houston Center
07:30PM 30.2514 -97.9867 285° West 398 458 34,000  Level Houston Center
07:31PM 30.2792 -98.1106 285° West 399 459 34,000  Level Houston Center
07:32PM 30.3064 -98.2344 284° West 398 458 34,000  Level Houston Center
07:33PM 30.3333 -98.3525 285° West 397 457 34,000  Level Houston Center
07:34PM 30.3622 -98.4783 285° West 400 460 34,000  Level Houston Center
07:35PM 30.3889 -98.6022 284° West 395 455 34,000  Level Houston Center
07:36PM 30.4161 -98.7283 284° West 398 458 34,000  Level Houston Center
07:37PM 30.4442 -98.8531 285° West 397 457 34,000  Level Houston Center
07:38PM 30.4717 -98.9783 284° West 397 457 34,000  Level Houston Center
07:39PM 30.5028 -99.1228 284° West 393 452 34,000  Level Houston Center
07:40PM 30.5272 -99.2286 285° West 395 455 34,000  Level Houston Center
07:41PM 30.5539 -99.3519 284° West 396 456 34,000  Level Houston Center
07:42PM 30.5864 -99.5006 284° West 397 457 34,000  Level Houston Center
07:43PM 30.6125 -99.6258 284° West 400 460 34,000 -60 Level Houston Center
07:44PM 30.6386 -99.7517 284° West 403 464 33,900  Descending Houston Center
07:45PM 30.6644 -99.8739 284° West 394 453 34,000  Climbing Houston Center
07:46PM 30.6914 -100.0017 284° West 406 467 34,000 -60 Level Houston Center
07:47PM 30.7175 -100.1253 284° West 398 458 33,900  Descending Houston Center
07:48PM 30.7436 -100.2522 283° West 405 466 34,000  Climbing Houston Center
07:49PM 30.7750 -100.4058 283° West 409 471 34,000  Level Houston Center
07:50PM 30.8011 -100.5292 284° West 400 460 34,000  Level Houston Center
07:51PM 30.8253 -100.6522 283° West 395 455 34,000  Level Houston Center
07:52PM 30.8508 -100.7761 284° West 395 455 34,000  Level Houston Center
07:53PM 30.8761 -100.9003 283° West 396 456 34,000  Level Houston Center
07:54PM 30.9006 -101.0222 283° West 391 450 34,000  Level Houston Center
07:55PM 30.9258 -101.1478 283° West 396 456 34,000  Level Houston Center
07:56PM 30.9503 -101.2733 283° West 397 457 34,000  Level Houston Center
07:57PM 30.9761 -101.3953 284° West 397 457 34,000 360 Level Albuquerque Center
07:58PM 30.9983 -101.5203 282° West 396 456 34,700 840 Climbing Albuquerque Center
07:59PM 31.0217 -101.6419 283° West 392 451 35,800 540 Climbing Albuquerque Center
08:00PM 31.0464 -101.7628 283° West 387 445 35,900  Climbing Albuquerque Center
08:01PM 31.0714 -101.8881 283° West 390 449 35,900  Level Albuquerque Center
08:02PM 31.1000 -102.0403 282° West 405 466 36,000  Climbing Albuquerque Center
08:03PM 31.1236 -102.1628 283° West 392 451 36,000  Level Albuquerque Center
08:04PM 31.1461 -102.2869 282° West 390 449 36,000  Level Albuquerque Center
08:05PM 31.1697 -102.4086 283° West 386 444 36,000  Level Albuquerque Center
08:06PM 31.1944 -102.5389 283° West 386 444 36,000  Level Albuquerque Center
08:08PM 31.2172 -102.6614 282° West 384 442 36,000 -60 Level Albuquerque Center
08:09PM 31.2175 -102.7856 270° West 389 448 35,900 -60 Descending Albuquerque Center
08:10PM 31.1600 -102.8883 237° Southwest 387 445 35,900  Level Albuquerque Center
08:11PM 31.0836 -102.9764 225° Southwest 387 445 36,000  Climbing Albuquerque Center
08:12PM 31.0053 -103.0642 224° Southwest 391 450 36,000  Level Albuquerque Center
08:13PM 30.9289 -103.1542 225° Southwest 391 450 36,000  Level Albuquerque Center
08:14PM 30.8389 -103.2625 226° Southwest 390 449 36,000  Level Albuquerque Center
08:15PM 30.7589 -103.3497 223° Southwest 392 451 36,000  Level Albuquerque Center
08:16PM 30.6817 -103.4378 224° Southwest 391 450 36,000  Level Albuquerque Center
08:17PM 30.6028 -103.5258 224° Southwest 392 451 36,000  Level Albuquerque Center
08:18PM 30.6122 -103.6436 275° West 380 437 36,000  Level Albuquerque Center
08:19PM 30.6664 -103.7564 299° West 394 453 36,000 -60 Level Albuquerque Center
08:20PM 30.7222 -103.8764 298° West 395 455 35,900  Descending Albuquerque Center
08:21PM 30.7736 -103.9881 298° West 394 453 36,000  Climbing Albuquerque Center
08:22PM 30.8267 -104.0997 299° West 394 453 35,900  Descending Albuquerque Center
08:23PM 30.8786 -104.2114 298° West 395 455 36,000  Climbing Albuquerque Center
08:24PM 30.9300 -104.3233 298° West 393 452 36,000  Level Albuquerque Center
08:25PM 30.9917 -104.4547 299° West 389 448 36,000 -60 Level Albuquerque Center
08:26PM 31.0422 -104.5653 298° West 388 447 35,900  Descending Albuquerque Center
08:27PM 31.0933 -104.6753 299° West 389 448 36,000  Climbing Albuquerque Center
08:28PM 31.1442 -104.7858 298° West 389 448 36,000  Level Albuquerque Center
08:29PM 31.1953 -104.8961 298° West 390 449 36,000  Level Albuquerque Center
08:30PM 31.2458 -105.0072 298° West 391 450 36,000  Level Albuquerque Center
08:31PM 31.3064 -105.1442 297° West 397 457 36,000 -60 Level Albuquerque Center
08:32PM 31.3358 -105.2656 286° West 391 450 35,900  Descending Albuquerque Center
08:33PM 31.3661 -105.3883 286° West 394 453 36,000  Climbing Albuquerque Center
08:34PM 31.3964 -105.5103 286° West 393 452 36,000  Level Albuquerque Center
08:35PM 31.4261 -105.6322 286° West 391 450 36,000  Level Albuquerque Center
08:36PM 31.4567 -105.7539 286° West 391 450 36,000  Level Albuquerque Center
08:37PM 31.4864 -105.8747 286° West 390 449 36,000  Level Albuquerque Center
08:38PM 31.5169 -105.9967 286° West 390 449 36,000 -60 Level Albuquerque Center
08:39PM 31.5528 -106.1406 286° West 386 444 35,900 -60 Descending Albuquerque Center
08:40PM 31.5817 -106.2608 286° West 384 442 35,900  Level Albuquerque Center
08:41PM 31.6106 -106.3811 286° West 385 443 36,000  Climbing Albuquerque Center
08:42PM 31.6394 -106.5022 286° West 386 444 36,000  Level Albuquerque Center
08:43PM 31.6717 -106.6319 286° West 383 441 36,000 -60 Level Albuquerque Center
08:44PM 31.7008 -106.7531 286° West 385 443 35,900  Descending Albuquerque Center
08:45PM 31.7303 -106.8725 286° West 381 438 36,000  Climbing Albuquerque Center
08:46PM 31.7578 -106.9919 285° West 378 435 36,000  Level Albuquerque Center
08:47PM 31.7864 -107.1125 286° West 381 438 36,000  Level Albuquerque Center
08:48PM 31.8147 -107.2322 286° West 380 437 36,000  Level Albuquerque Center
08:49PM 31.8428 -107.3547 285° West 385 443 36,000  Level Albuquerque Center
08:51PM 31.8697 -107.4756 285° West 382 440 36,000  Level Albuquerque Center
08:52PM 31.9014 -107.6089 286° West 381 438 36,000  Level Albuquerque Center
08:53PM 31.9261 -107.7167 285° West 381 438 36,000  Level Albuquerque Center
08:54PM 31.9592 -107.8631 285° West 383 441 36,000  Level Albuquerque Center
08:55PM 31.9864 -107.9842 285° West 382 440 36,000  Level Albuquerque Center
08:56PM 32.0142 -108.1072 285° West 386 444 36,000  Level Albuquerque Center
08:57PM 32.0381 -108.2119 285° West 385 443 36,000  Level Albuquerque Center
08:58PM 32.0706 -108.3594 285° West 388 447 36,000  Level Albuquerque Center
08:59PM 32.0975 -108.4814 285° West 388 447 36,000 -420 Level Albuquerque Center
09:00PM 32.1250 -108.6058 285° West 391 450 35,200 -1,020 Descending Albuquerque Center
09:01PM 32.1531 -108.7300 285° West 394 453 34,000 -600 Descending Albuquerque Center
09:02PM 32.1811 -108.8564 285° West 398 458 34,000  Level Albuquerque Center
09:03PM 32.2083 -108.9844 284° West 403 464 34,000  Level Albuquerque Center
09:04PM 32.2361 -109.1139 284° West 406 467 34,000  Level Albuquerque Center
09:05PM 32.2639 -109.2431 284° West 407 468 34,000 -480 Level Albuquerque Center
09:06PM 32.3008 -109.3967 286° West 406 467 33,100 -960 Descending Albuquerque Center
09:07PM 32.3317 -109.5242 286° West 405 466 32,100 -960 Descending Albuquerque Center
09:08PM 32.3622 -109.6500 286° West 402 463 31,200 -900 Descending Albuquerque Center
09:09PM 32.3919 -109.7803 285° West 407 468 30,300 -600 Descending Albuquerque Center
09:10PM 32.4272 -109.9133 287° West 419 482 30,000 -180 Descending Albuquerque Center
09:11PM 32.4575 -110.0428 286° West 416 479 30,000  Level Albuquerque Center
09:12PM 32.4886 -110.1714 286° West 411 473 30,000 -540 Level Albuquerque Center
09:13PM 32.5242 -110.3222 286° West 402 463 29,000 -1,500 Descending Albuquerque Center
09:14PM 32.5497 -110.4292 286° West 397 457 27,000 -2,100 Descending Albuquerque Center
09:15PM 32.5767 -110.5461 285° West 378 435 24,700 -1,500 Descending Albuquerque Center
09:16PM 32.6297 -110.6675 297° West 350 403 24,000 -360 Descending Albuquerque Center
09:17PM 32.6836 -110.7667 303° West 353 406 24,000  Level Albuquerque Center
09:18PM 32.7392 -110.8681 303° West 364 419 24,000 -900 Level Albuquerque Center
09:19PM 32.7919 -110.9683 302° West 360 414 22,200 -1,920 Descending Albuquerque Center
09:20PM 32.8406 -111.0622 302° West 340 391 20,100 -1,800 Descending Albuquerque Center
09:21PM 32.8867 -111.1519 301° West 325 374 18,600 -1,740 Descending Albuquerque Center
09:22PM 32.9283 -111.2422 299° West 314 361 16,600 -1,860 Descending Albuquerque Center
09:23PM 32.9689 -111.3306 299° West 306 352 14,800 -1,440 Descending Albuquerque Center
09:24PM 33.0083 -111.4161 299° West 297 342 13,700 -1,440 Descending Albuquerque Center
09:25PM 33.0572 -111.5103 302° West 282 325 11,900 -1,680 Descending Albuquerque Center
09:26PM 33.1072 -111.5772 312° West 276 318 10,300 -1,320 Descending Albuquerque Center
09:27PM 33.1794 -111.6169 335° Northwest 286 329 9,200 -900 Descending Albuquerque Center
09:28PM 33.2478 -111.6536 336° Northwest 269 310 8,500 -840 Descending Albuquerque Center
09:29PM 33.3097 -111.6925 332° Northwest 253 291 7,500 -1,080 Descending Albuquerque Center
09:30PM 33.3697 -111.7272 334° Northwest 241 277 6,300 -1,140 Descending Albuquerque Center
09:31PM 33.4147 -111.7803 315° West 229 264 5,200 -960 Descending Albuquerque Center
09:32PM 33.4289 -111.8414 286° West 194 223 4,400 -900 Descending Albuquerque Center
09:33PM 33.4306 -111.8964 272° West 166 191 3,400 -1,260 Descending Albuquerque Center
09:34PM 33.4319 -111.9453 272° West 148 170 1,900 -1,140 Descending Albuquerque Center
09:36PM 33.4306 -112.0008 268° West 141 162 1,100 -840 Descending Albuquerque Center
09:37PM 33.4333 -112.0000 40° Northeast  Level FlightAware Approximate
09:44PM 33.4343 -112.0116 40° Northeast  Level Estimated